sensor_id;sensor_type;location;lat;lon;timestamp;pressure;altitude;pressure_sealevel;temperature;humidity
24306;BME280;12423;48.768;8.850;2023-01-31T00:01:31;97873.84;;;1.85;100.00
24306;BME280;12423;48.768;8.850;2023-01-31T00:03:33;97870.03;;;1.92;100.00
24306;BME280;12423;48.768;8.850;2023-01-31T00:05:34;97864.03;;;1.89;100.00
24306;BME280;12423;48.768;8.850;2023-01-31T00:07:34;97861.34;;;1.90;100.00
24306;BME280;12423;48.768;8.850;2023-01-31T00:09:35;97876.28;;;1.90;100.00
24306;BME280;12423;48.768;8.850;2023-01-31T00:11:37;97871.09;;;1.88;100.00
24306;BME280;12423;48.768;8.850;2023-01-31T00:13:39;97864.88;;;1.89;100.00
24306;BME280;12423;48.768;8.850;2023-01-31T00:15:40;97862.25;;;1.89;100.00
24306;BME280;12423;48.768;8.850;2023-01-31T00:17:41;97863.91;;;1.92;100.00
24306;BME280;12423;48.768;8.850;2023-01-31T00:19:42;97864.66;;;1.95;100.00
24306;BME280;12423;48.768;8.850;2023-01-31T00:21:43;97857.09;;;1.86;100.00
24306;BME280;12423;48.768;8.850;2023-01-31T00:23:45;97861.28;;;1.92;100.00
24306;BME280;12423;48.768;8.850;2023-01-31T00:25:46;97869.94;;;1.95;100.00
24306;BME280;12423;48.768;8.850;2023-01-31T00:27:47;97859.59;;;1.89;100.00
24306;BME280;12423;48.768;8.850;2023-01-31T00:29:48;97870.94;;;1.91;100.00
24306;BME280;12423;48.768;8.850;2023-01-31T00:31:50;97885.13;;;1.89;100.00
24306;BME280;12423;48.768;8.850;2023-01-31T00:33:53;97877.25;;;1.87;100.00
24306;BME280;12423;48.768;8.850;2023-01-31T00:35:55;97873.47;;;1.94;100.00
24306;BME280;12423;48.768;8.850;2023-01-31T00:37:57;97871.78;;;1.93;100.00
24306;BME280;12423;48.768;8.850;2023-01-31T00:39:58;97868.19;;;1.94;100.00
24306;BME280;12423;48.768;8.850;2023-01-31T00:41:59;97863.28;;;1.85;100.00
24306;BME280;12423;48.768;8.850;2023-01-31T00:44:00;97855.50;;;1.82;100.00
24306;BME280;12423;48.768;8.850;2023-01-31T00:46:02;97867.00;;;1.79;100.00
24306;BME280;12423;48.768;8.850;2023-01-31T00:48:03;97854.06;;;1.73;100.00
24306;BME280;12423;48.768;8.850;2023-01-31T00:50:04;97846.16;;;1.73;100.00
24306;BME280;12423;48.768;8.850;2023-01-31T00:52:05;97840.13;;;1.70;100.00
24306;BME280;12423;48.768;8.850;2023-01-31T00:54:06;97842.84;;;1.68;100.00
24306;BME280;12423;48.768;8.850;2023-01-31T00:56:12;97852.47;;;1.69;100.00
24306;BME280;12423;48.768;8.850;2023-01-31T00:58:15;97845.47;;;1.68;100.00
24306;BME280;12423;48.768;8.850;2023-01-31T01:00:17;97837.00;;;1.60;100.00
24306;BME280;12423;48.768;8.850;2023-01-31T01:02:18;97838.66;;;1.62;100.00
24306;BME280;12423;48.768;8.850;2023-01-31T01:04:19;97846.56;;;1.62;100.00
24306;BME280;12423;48.768;8.850;2023-01-31T01:06:20;97844.03;;;1.59;100.00
24306;BME280;12423;48.768;8.850;2023-01-31T01:08:21;97832.88;;;1.53;100.00
24306;BME280;12423;48.768;8.850;2023-01-31T01:10:22;97844.94;;;1.58;100.00
24306;BME280;12423;48.768;8.850;2023-01-31T01:12:23;97844.16;;;1.56;100.00
24306;BME280;12423;48.768;8.850;2023-01-31T01:14:24;97831.78;;;1.58;100.00
24306;BME280;12423;48.768;8.850;2023-01-31T01:16:34;97845.41;;;1.70;100.00
24306;BME280;12423;48.768;8.850;2023-01-31T01:18:37;97842.66;;;1.73;100.00
24306;BME280;12423;48.768;8.850;2023-01-31T01:20:39;97846.09;;;1.75;100.00
24306;BME280;12423;48.768;8.850;2023-01-31T01:22:40;97845.13;;;1.77;100.00
24306;BME280;12423;48.768;8.850;2023-01-31T01:24:43;97838.97;;;1.78;100.00
24306;BME280;12423;48.768;8.850;2023-01-31T01:26:44;97829.16;;;1.82;100.00
24306;BME280;12423;48.768;8.850;2023-01-31T01:28:46;97833.47;;;1.83;100.00
24306;BME280;12423;48.768;8.850;2023-01-31T01:30:47;97837.06;;;1.82;100.00
24306;BME280;12423;48.768;8.850;2023-01-31T01:32:48;97834.59;;;1.77;100.00
24306;BME280;12423;48.768;8.850;2023-01-31T01:34:49;97839.88;;;1.77;100.00
24306;BME280;12423;48.768;8.850;2023-01-31T01:36:50;97839.91;;;1.76;100.00
24306;BME280;12423;48.768;8.850;2023-01-31T01:38:51;97831.38;;;1.69;100.00
24306;BME280;12423;48.768;8.850;2023-01-31T01:40:53;97833.97;;;1.71;100.00
24306;BME280;12423;48.768;8.850;2023-01-31T01:42:56;97841.94;;;1.69;100.00
24306;BME280;12423;48.768;8.850;2023-01-31T01:44:58;97839.41;;;1.66;100.00
24306;BME280;12423;48.768;8.850;2023-01-31T01:47:00;97838.56;;;1.65;100.00
24306;BME280;12423;48.768;8.850;2023-01-31T01:49:10;97834.97;;;1.66;100.00
24306;BME280;12423;48.768;8.850;2023-01-31T01:51:14;97828.88;;;1.66;100.00
24306;BME280;12423;48.768;8.850;2023-01-31T01:53:19;97834.25;;;1.63;100.00
24306;BME280;12423;48.768;8.850;2023-01-31T01:55:25;97833.44;;;1.61;100.00
24306;BME280;12423;48.768;8.850;2023-01-31T01:57:32;97838.59;;;1.64;100.00
24306;BME280;12423;48.768;8.850;2023-01-31T01:59:48;97831.66;;;1.61;100.00
24306;BME280;12423;48.768;8.850;2023-01-31T02:01:54;97830.19;;;1.54;100.00
24306;BME280;12423;48.768;8.850;2023-01-31T02:03:56;97827.56;;;1.54;100.00
24306;BME280;12423;48.768;8.850;2023-01-31T02:06:01;97825.03;;;1.51;100.00
24306;BME280;12423;48.768;8.850;2023-01-31T02:08:04;97824.66;;;1.62;100.00
24306;BME280;12423;48.768;8.850;2023-01-31T02:10:11;97818.50;;;1.61;100.00
24306;BME280;12423;48.768;8.850;2023-01-31T02:12:13;97825.72;;;1.56;100.00
24306;BME280;12423;48.768;8.850;2023-01-31T02:14:15;97823.88;;;1.58;100.00
24306;BME280;12423;48.768;8.850;2023-01-31T02:16:18;97818.88;;;1.52;100.00
24306;BME280;12423;48.768;8.850;2023-01-31T02:18:20;97828.41;;;1.55;100.00
24306;BME280;12423;48.768;8.850;2023-01-31T02:20:46;97820.56;;;1.53;100.00
24306;BME280;12423;48.768;8.850;2023-01-31T02:27:44;97841.75;;;1.50;100.00
24306;BME280;12423;48.768;8.850;2023-01-31T02:31:07;97841.00;;;1.46;100.00
24306;BME280;12423;48.768;8.850;2023-01-31T02:32:46;97841.97;;;1.44;100.00
24306;BME280;12423;48.768;8.850;2023-01-31T02:39:38;97855.09;;;1.45;100.00
24306;BME280;12423;48.768;8.850;2023-01-31T02:44:46;97857.88;;;1.41;100.00
24306;BME280;12423;48.768;8.850;2023-01-31T02:49:39;97851.00;;;1.37;100.00
24306;BME280;12423;48.768;8.850;2023-01-31T02:51:49;97859.84;;;1.36;100.00
24306;BME280;12423;48.768;8.850;2023-01-31T02:54:14;97855.47;;;1.35;100.00
24306;BME280;12423;48.768;8.850;2023-01-31T02:56:28;97862.13;;;1.45;100.00
24306;BME280;12423;48.768;8.850;2023-01-31T02:58:33;97866.38;;;1.49;100.00
24306;BME280;12423;48.768;8.850;2023-01-31T03:00:38;97855.09;;;1.45;100.00
24306;BME280;12423;48.768;8.850;2023-01-31T03:02:40;97855.84;;;1.49;100.00
24306;BME280;12423;48.768;8.850;2023-01-31T03:04:41;97856.91;;;1.43;100.00
24306;BME280;12423;48.768;8.850;2023-01-31T03:06:51;97859.69;;;1.40;100.00
24306;BME280;12423;48.768;8.850;2023-01-31T03:09:13;97870.91;;;1.45;100.00
24306;BME280;12423;48.768;8.850;2023-01-31T03:11:25;97870.13;;;1.42;100.00
24306;BME280;12423;48.768;8.850;2023-01-31T03:18:33;97865.78;;;1.41;100.00
24306;BME280;12423;48.768;8.850;2023-01-31T03:20:53;97870.00;;;1.45;100.00
24306;BME280;12423;48.768;8.850;2023-01-31T03:23:14;97862.16;;;1.43;100.00
24306;BME280;12423;48.768;8.850;2023-01-31T03:25:19;97861.25;;;1.44;100.00
24306;BME280;12423;48.768;8.850;2023-01-31T03:27:22;97867.34;;;1.46;100.00
24306;BME280;12423;48.768;8.850;2023-01-31T03:29:28;97865.69;;;1.44;100.00
24306;BME280;12423;48.768;8.850;2023-01-31T03:31:47;97875.22;;;1.46;100.00
24306;BME280;12423;48.768;8.850;2023-01-31T03:34:15;97878.75;;;1.47;100.00
24306;BME280;12423;48.768;8.850;2023-01-31T03:36:55;97884.31;;;1.38;100.00
24306;BME280;12423;48.768;8.850;2023-01-31T03:43:58;97890.44;;;1.38;100.00
24306;BME280;12423;48.768;8.850;2023-01-31T03:46:08;97891.19;;;1.42;100.00
24306;BME280;12423;48.768;8.850;2023-01-31T03:48:12;97895.44;;;1.46;100.00
24306;BME280;12423;48.768;8.850;2023-01-31T03:50:20;97884.28;;;1.39;100.00
24306;BME280;12423;48.768;8.850;2023-01-31T03:52:31;97887.97;;;1.34;100.00
24306;BME280;12423;48.768;8.850;2023-01-31T03:54:46;97877.31;;;1.37;100.00
24306;BME280;12423;48.768;8.850;2023-01-31T03:56:56;97890.44;;;1.38;100.00
24306;BME280;12423;48.768;8.850;2023-01-31T03:59:11;97889.59;;;1.38;100.00
24306;BME280;12423;48.768;8.850;2023-01-31T04:01:15;97888.94;;;1.31;100.00
24306;BME280;12423;48.768;8.850;2023-01-31T04:03:27;97885.28;;;1.35;100.00
24306;BME280;12423;48.768;8.850;2023-01-31T04:05:31;97893.13;;;1.37;100.00
24306;BME280;12423;48.768;8.850;2023-01-31T04:07:33;97894.97;;;1.35;100.00
24306;BME280;12423;48.768;8.850;2023-01-31T04:09:37;97897.59;;;1.35;100.00
24306;BME280;12423;48.768;8.850;2023-01-31T04:11:40;97899.22;;;1.39;100.00
24306;BME280;12423;48.768;8.850;2023-01-31T04:13:42;97898.28;;;1.40;100.00
24306;BME280;12423;48.768;8.850;2023-01-31T04:15:42;97911.66;;;1.34;100.00
24306;BME280;12423;48.768;8.850;2023-01-31T04:17:43;97902.16;;;1.29;100.00
24306;BME280;12423;48.768;8.850;2023-01-31T04:19:44;97912.78;;;1.26;100.00
24306;BME280;12423;48.768;8.850;2023-01-31T04:21:45;97904.81;;;1.29;100.00
24306;BME280;12423;48.768;8.850;2023-01-31T04:23:47;97909.16;;;1.31;100.00
24306;BME280;12423;48.768;8.850;2023-01-31T04:25:48;97905.84;;;1.25;100.00
24306;BME280;12423;48.768;8.850;2023-01-31T04:27:49;97908.28;;;1.30;100.00
24306;BME280;12423;48.768;8.850;2023-01-31T04:29:51;97901.91;;;1.37;100.00
24306;BME280;12423;48.768;8.850;2023-01-31T04:31:52;97897.59;;;1.35;100.00
24306;BME280;12423;48.768;8.850;2023-01-31T04:33:53;97905.34;;;1.39;100.00
24306;BME280;12423;48.768;8.850;2023-01-31T04:35:54;97902.16;;;1.29;100.00
24306;BME280;12423;48.768;8.850;2023-01-31T04:37:55;97904.00;;;1.27;100.00
24306;BME280;12423;48.768;8.850;2023-01-31T04:39:56;97905.84;;;1.25;100.00
24306;BME280;12423;48.768;8.850;2023-01-31T04:41:56;97903.06;;;1.28;100.00
24306;BME280;12423;48.768;8.850;2023-01-31T04:43:57;97904.09;;;1.24;100.00
24306;BME280;12423;48.768;8.850;2023-01-31T04:45:58;97899.63;;;1.26;100.00
24306;BME280;12423;48.768;8.850;2023-01-31T04:47:59;97896.09;;;1.27;100.00
24306;BME280;12423;48.768;8.850;2023-01-31T04:50:00;97906.53;;;1.31;100.00
24306;BME280;12423;48.768;8.850;2023-01-31T04:52:01;97905.59;;;1.32;100.00
24306;BME280;12423;48.768;8.850;2023-01-31T04:54:03;97901.28;;;1.31;100.00
24306;BME280;12423;48.768;8.850;2023-01-31T04:56:04;97902.16;;;1.29;100.00
24306;BME280;12423;48.768;8.850;2023-01-31T04:58:05;97894.31;;;1.28;100.00
24306;BME280;12423;48.768;8.850;2023-01-31T05:00:07;97892.50;;;1.30;100.00
24306;BME280;12423;48.768;8.850;2023-01-31T05:02:08;97883.94;;;1.23;100.00
24306;BME280;12423;48.768;8.850;2023-01-31T05:04:09;97885.84;;;1.20;100.00
24306;BME280;12423;48.768;8.850;2023-01-31T05:06:10;97877.88;;;1.21;100.00
24306;BME280;12423;48.768;8.850;2023-01-31T05:08:11;97886.69;;;1.20;100.00
24306;BME280;12423;48.768;8.850;2023-01-31T05:10:12;97887.63;;;1.19;100.00
24306;BME280;12423;48.768;8.850;2023-01-31T05:12:13;97889.31;;;1.20;100.00
24306;BME280;12423;48.768;8.850;2023-01-31T05:14:14;97887.22;;;1.05;100.00
24306;BME280;12423;48.768;8.850;2023-01-31T05:16:15;97883.03;;;0.99;100.00
24306;BME280;12423;48.768;8.850;2023-01-31T05:18:16;97887.53;;;0.96;100.00
24306;BME280;12423;48.768;8.850;2023-01-31T05:20:17;97891.78;;;1.00;100.00
24306;BME280;12423;48.768;8.850;2023-01-31T05:22:18;97890.94;;;0.99;100.00
24306;BME280;12423;48.768;8.850;2023-01-31T05:24:22;97898.84;;;0.99;100.00
24306;BME280;12423;48.768;8.850;2023-01-31T05:26:23;97896.31;;;0.96;100.00
24306;BME280;12423;48.768;8.850;2023-01-31T05:28:24;97892.75;;;0.97;100.00
24306;BME280;12423;48.768;8.850;2023-01-31T05:30:25;97897.34;;;0.90;100.00
24306;BME280;12423;48.768;8.850;2023-01-31T05:32:27;97897.34;;;0.90;100.00
24306;BME280;12423;48.768;8.850;2023-01-31T05:34:28;97896.44;;;0.91;100.00
24306;BME280;12423;48.768;8.850;2023-01-31T05:36:32;97894.94;;;0.84;100.00
24306;BME280;12423;48.768;8.850;2023-01-31T05:38:33;97902.72;;;0.87;100.00
24306;BME280;12423;48.768;8.850;2023-01-31T05:40:34;97898.28;;;0.89;100.00
24306;BME280;12423;48.768;8.850;2023-01-31T05:42:35;97897.19;;;0.95;100.00
24306;BME280;12423;48.768;8.850;2023-01-31T05:44:36;97894.81;;;0.87;100.00
24306;BME280;12423;48.768;8.850;2023-01-31T05:46:37;97912.44;;;0.85;100.00
24306;BME280;12423;48.768;8.850;2023-01-31T05:48:38;97911.53;;;0.86;100.00
24306;BME280;12423;48.768;8.850;2023-01-31T05:50:39;97907.78;;;0.94;100.00
24306;BME280;12423;48.768;8.850;2023-01-31T05:52:49;97905.94;;;0.96;100.00
24306;BME280;12423;48.768;8.850;2023-01-31T05:54:49;97904.25;;;0.95;100.00
24306;BME280;12423;48.768;8.850;2023-01-31T05:56:50;97907.63;;;0.98;100.00
24306;BME280;12423;48.768;8.850;2023-01-31T05:58:51;97911.72;;;0.80;100.00
24306;BME280;12423;48.768;8.850;2023-01-31T06:00:55;97907.25;;;0.82;100.00
24306;BME280;12423;48.768;8.850;2023-01-31T06:02:57;97902.94;;;0.81;100.00
24306;BME280;12423;48.768;8.850;2023-01-31T06:04:58;97904.63;;;0.82;100.00
24306;BME280;12423;48.768;8.850;2023-01-31T06:07:00;97911.53;;;0.86;100.00
24306;BME280;12423;48.768;8.850;2023-01-31T06:09:00;97906.38;;;0.83;100.00
24306;BME280;12423;48.768;8.850;2023-01-31T06:11:03;97912.84;;;0.73;100.00
24306;BME280;12423;48.768;8.850;2023-01-31T06:13:04;97910.91;;;0.78;100.00
24306;BME280;12423;48.768;8.850;2023-01-31T06:15:07;97905.84;;;0.72;100.00
24306;BME280;12423;48.768;8.850;2023-01-31T06:17:08;97919.31;;;0.63;100.00
24306;BME280;12423;48.768;8.850;2023-01-31T06:19:09;97915.66;;;0.67;100.00
24306;BME280;12423;48.768;8.850;2023-01-31T06:21:10;97914.81;;;0.66;100.00
24306;BME280;12423;48.768;8.850;2023-01-31T06:23:11;97921.03;;;0.64;100.00
24306;BME280;12423;48.768;8.850;2023-01-31T06:25:12;97918.59;;;0.58;100.00
24306;BME280;12423;48.768;8.850;2023-01-31T06:27:13;97913.53;;;0.51;100.00
24306;BME280;12423;48.768;8.850;2023-01-31T06:29:14;97921.75;;;0.41;100.00
24306;BME280;12423;48.768;8.850;2023-01-31T06:31:15;97916.63;;;0.36;100.00
24306;BME280;12423;48.768;8.850;2023-01-31T06:33:16;97923.63;;;0.37;100.00
24306;BME280;12423;48.768;8.850;2023-01-31T06:35:17;97926.38;;;0.32;100.00
24306;BME280;12423;48.768;8.850;2023-01-31T06:37:18;97921.94;;;0.34;100.00
24306;BME280;12423;48.768;8.850;2023-01-31T06:39:19;97921.09;;;0.34;100.00
24306;BME280;12423;48.768;8.850;2023-01-31T06:41:20;97932.25;;;0.41;100.00
24306;BME280;12423;48.768;8.850;2023-01-31T06:43:21;97933.38;;;0.33;100.00
24306;BME280;12423;48.768;8.850;2023-01-31T06:45:22;97940.50;;;0.30;100.00
24306;BME280;12423;48.768;8.850;2023-01-31T06:47:23;97933.28;;;0.36;100.00
24306;BME280;12423;48.768;8.850;2023-01-31T06:49:24;97936.84;;;0.34;100.00
24306;BME280;12423;48.768;8.850;2023-01-31T06:51:25;97940.38;;;0.33;100.00
24306;BME280;12423;48.768;8.850;2023-01-31T06:53:26;97940.47;;;0.31;100.00
24306;BME280;12423;48.768;8.850;2023-01-31T06:55:27;97932.00;;;0.22;100.00
24306;BME280;12423;48.768;8.850;2023-01-31T06:57:28;97926.53;;;0.28;100.00
24306;BME280;12423;48.768;8.850;2023-01-31T06:59:29;97921.97;;;0.33;100.00
24306;BME280;12423;48.768;8.850;2023-01-31T07:01:30;97929.19;;;0.26;100.00
24306;BME280;12423;48.768;8.850;2023-01-31T07:03:31;97917.81;;;0.26;100.00
24306;BME280;12423;48.768;8.850;2023-01-31T07:05:32;97917.75;;;0.29;100.00
24306;BME280;12423;48.768;8.850;2023-01-31T07:07:33;97920.16;;;0.36;100.00
24306;BME280;12423;48.768;8.850;2023-01-31T07:09:34;97926.53;;;0.28;100.00
24306;BME280;12423;48.768;8.850;2023-01-31T07:11:36;97927.19;;;0.34;100.00
24306;BME280;12423;48.768;8.850;2023-01-31T07:13:37;97931.69;;;0.31;100.00
24306;BME280;12423;48.768;8.850;2023-01-31T07:15:38;97927.91;;;0.40;100.00
24306;BME280;12423;48.768;8.850;2023-01-31T07:17:39;97939.34;;;0.39;100.00
24306;BME280;12423;48.768;8.850;2023-01-31T07:19:40;97933.16;;;0.40;100.00
24306;BME280;12423;48.768;8.850;2023-01-31T07:21:41;97936.28;;;0.52;100.00
24306;BME280;12423;48.768;8.850;2023-01-31T07:23:42;97936.28;;;0.52;100.00
24306;BME280;12423;48.768;8.850;2023-01-31T07:25:45;97928.47;;;0.49;100.00
24306;BME280;12423;48.768;8.850;2023-01-31T07:27:46;97940.59;;;0.55;100.00
24306;BME280;12423;48.768;8.850;2023-01-31T07:29:47;97937.91;;;0.57;100.00
24306;BME280;12423;48.768;8.850;2023-01-31T07:31:47;97938.81;;;0.55;100.00
24306;BME280;12423;48.768;8.850;2023-01-31T07:33:48;97946.56;;;0.60;100.00
24306;BME280;12423;48.768;8.850;2023-01-31T07:35:49;97930.75;;;0.62;100.00
24306;BME280;12423;48.768;8.850;2023-01-31T07:37:51;97943.00;;;0.63;100.00
24306;BME280;12423;48.768;8.850;2023-01-31T07:39:52;97945.81;;;0.57;100.00
24306;BME280;12423;48.768;8.850;2023-01-31T07:41:53;97955.25;;;0.62;100.00
24306;BME280;12423;48.768;8.850;2023-01-31T07:43:57;97940.19;;;0.67;100.00
24306;BME280;12423;48.768;8.850;2023-01-31T07:45:59;97933.97;;;0.70;100.00
24306;BME280;12423;48.768;8.850;2023-01-31T07:48:00;97934.84;;;0.70;100.00
24306;BME280;12423;48.768;8.850;2023-01-31T07:50:01;97925.13;;;0.72;100.00
24306;BME280;12423;48.768;8.850;2023-01-31T07:52:02;97928.34;;;0.81;100.00
24306;BME280;12423;48.768;8.850;2023-01-31T07:54:04;97942.28;;;0.84;100.00
24306;BME280;12423;48.768;8.850;2023-01-31T07:56:16;97944.69;;;0.90;100.00
24306;BME280;12423;48.768;8.850;2023-01-31T07:58:17;97949.78;;;0.97;100.00
24306;BME280;12423;48.768;8.850;2023-01-31T08:00:19;97948.56;;;1.07;100.00
24306;BME280;12423;48.768;8.850;2023-01-31T08:02:38;97945.72;;;1.13;100.00
24306;BME280;12423;48.768;8.850;2023-01-31T08:04:58;97950.84;;;1.18;100.00
24306;BME280;12423;48.768;8.850;2023-01-31T08:06:59;97960.09;;;1.29;100.00
24306;BME280;12423;48.768;8.850;2023-01-31T08:09:02;97966.44;;;1.49;100.00
24306;BME280;12423;48.768;8.850;2023-01-31T08:11:04;97965.16;;;1.61;100.00
24306;BME280;12423;48.768;8.850;2023-01-31T08:13:04;97960.41;;;1.71;100.00
24306;BME280;12423;48.768;8.850;2023-01-31T08:15:06;97971.44;;;1.82;100.00
24306;BME280;12423;48.768;8.850;2023-01-31T08:17:07;97961.13;;;1.99;100.00
24306;BME280;12423;48.768;8.850;2023-01-31T08:19:08;97962.38;;;2.13;100.00
24306;BME280;12423;48.768;8.850;2023-01-31T08:21:11;97962.50;;;2.33;100.00
24306;BME280;12423;48.768;8.850;2023-01-31T08:23:12;97956.41;;;2.55;100.00
24306;BME280;12423;48.768;8.850;2023-01-31T08:25:13;97956.34;;;2.56;100.00
24306;BME280;12423;48.768;8.850;2023-01-31T08:27:14;97953.03;;;2.73;100.00
24306;BME280;12423;48.768;8.850;2023-01-31T08:29:15;97956.94;;;2.85;100.00
24306;BME280;12423;48.768;8.850;2023-01-31T08:31:20;97943.66;;;2.66;100.00
24306;BME280;12423;48.768;8.850;2023-01-31T08:33:21;97945.84;;;2.77;100.00
24306;BME280;12423;48.768;8.850;2023-01-31T08:35:24;97943.81;;;2.84;100.00
24306;BME280;12423;48.768;8.850;2023-01-31T08:37:25;97947.50;;;2.80;100.00
24306;BME280;12423;48.768;8.850;2023-01-31T08:39:26;97944.19;;;2.74;100.00
24306;BME280;12423;48.768;8.850;2023-01-31T08:41:28;97944.59;;;2.64;100.00
24306;BME280;12423;48.768;8.850;2023-01-31T08:43:29;97931.34;;;2.65;100.00
24306;BME280;12423;48.768;8.850;2023-01-31T08:45:30;97933.47;;;2.79;100.00
24306;BME280;12423;48.768;8.850;2023-01-31T08:47:32;97933.75;;;2.93;100.00
24306;BME280;12423;48.768;8.850;2023-01-31T08:49:33;97923.53;;;3.06;100.00
24306;BME280;12423;48.768;8.850;2023-01-31T08:51:36;97920.66;;;3.33;100.00
24306;BME280;12423;48.768;8.850;2023-01-31T08:53:40;97932.22;;;3.30;100.00
24306;BME280;12423;48.768;8.850;2023-01-31T08:55:43;97928.03;;;3.25;100.00
24306;BME280;12423;48.768;8.850;2023-01-31T08:57:44;97927.44;;;3.18;100.00
24306;BME280;12423;48.768;8.850;2023-01-31T08:59:45;97931.28;;;3.11;100.00
24306;BME280;12423;48.768;8.850;2023-01-31T09:01:46;97933.31;;;3.04;100.00
24306;BME280;12423;48.768;8.850;2023-01-31T09:03:48;97934.41;;;2.99;100.00
24306;BME280;12423;48.768;8.850;2023-01-31T09:05:50;97922.31;;;2.93;100.00
24306;BME280;12423;48.768;8.850;2023-01-31T09:07:51;97928.81;;;3.06;100.00
24306;BME280;12423;48.768;8.850;2023-01-31T09:09:52;97930.41;;;3.10;100.00
24306;BME280;12423;48.768;8.850;2023-01-31T09:11:53;97929.22;;;3.18;100.00
24306;BME280;12423;48.768;8.850;2023-01-31T09:13:54;97929.31;;;3.37;100.00
24306;BME280;12423;48.768;8.850;2023-01-31T09:17:59;97925.66;;;3.39;100.00
24306;BME280;12423;48.768;8.850;2023-01-31T09:20:00;97920.06;;;3.47;100.00
24306;BME280;12423;48.768;8.850;2023-01-31T09:22:06;97926.19;;;3.47;100.00
24306;BME280;12423;48.768;8.850;2023-01-31T09:24:08;97913.91;;;3.26;100.00
24306;BME280;12423;48.768;8.850;2023-01-31T09:26:10;97922.84;;;3.44;100.00
24306;BME280;12423;48.768;8.850;2023-01-31T09:28:11;97920.53;;;3.57;100.00
24306;BME280;12423;48.768;8.850;2023-01-31T09:30:13;97919.06;;;3.70;100.00
24306;BME280;12423;48.768;8.850;2023-01-31T09:32:14;97918.38;;;3.85;100.00
24306;BME280;12423;48.768;8.850;2023-01-31T09:34:15;97918.09;;;3.92;100.00
24306;BME280;12423;48.768;8.850;2023-01-31T09:36:19;97921.28;;;3.79;100.00
24306;BME280;12423;48.768;8.850;2023-01-31T09:38:20;97910.75;;;3.59;100.00
24306;BME280;12423;48.768;8.850;2023-01-31T09:40:24;97909.34;;;3.71;100.00
24306;BME280;12423;48.768;8.850;2023-01-31T09:42:36;97907.84;;;3.84;100.00
24306;BME280;12423;48.768;8.850;2023-01-31T09:44:41;97905.78;;;3.91;100.00
24306;BME280;12423;48.768;8.850;2023-01-31T09:47:05;97898.69;;;3.93;100.00
24306;BME280;12423;48.768;8.850;2023-01-31T09:49:19;97897.72;;;3.75;100.00
24306;BME280;12423;48.768;8.850;2023-01-31T09:51:22;97904.75;;;3.74;100.00
24306;BME280;12423;48.768;8.850;2023-01-31T09:53:29;97908.41;;;3.72;100.00
24306;BME280;12423;48.768;8.850;2023-01-31T09:58:08;97925.38;;;3.86;100.00
24306;BME280;12423;48.768;8.850;2023-01-31T10:00:31;97924.78;;;3.80;100.00
24306;BME280;12423;48.768;8.850;2023-01-31T10:03:02;97926.19;;;3.47;100.00
24306;BME280;12423;48.768;8.850;2023-01-31T10:05:20;97924.47;;;3.67;100.00
24306;BME280;12423;48.768;8.850;2023-01-31T10:07:33;97922.00;;;3.43;100.00
24306;BME280;12423;48.768;8.850;2023-01-31T10:09:43;97919.41;;;3.42;100.00
24306;BME280;12423;48.768;8.850;2023-01-31T10:11:50;97916.53;;;3.46;100.00
24306;BME280;12423;48.768;8.850;2023-01-31T10:14:12;97927.44;;;3.59;100.00
24306;BME280;12423;48.768;8.850;2023-01-31T10:16:25;97929.59;;;3.91;100.00
24306;BME280;12423;48.768;8.850;2023-01-31T10:18:31;97923.69;;;4.04;100.00
24306;BME280;12423;48.768;8.850;2023-01-31T10:20:37;97933.38;;;4.04;100.00
24306;BME280;12423;48.768;8.850;2023-01-31T10:22:47;97935.25;;;4.02;100.00
24306;BME280;12423;48.768;8.850;2023-01-31T10:24:57;97938.53;;;3.88;100.00
24306;BME280;12423;48.768;8.850;2023-01-31T10:27:13;97929.69;;;4.08;100.00
24306;BME280;12423;48.768;8.850;2023-01-31T10:29:23;97923.19;;;4.15;100.00
24306;BME280;12423;48.768;8.850;2023-01-31T10:31:32;97931.53;;;4.25;100.00
24306;BME280;12423;48.768;8.850;2023-01-31T10:33:43;97916.19;;;4.14;100.00
24306;BME280;12423;48.768;8.850;2023-01-31T10:35:47;97908.53;;;4.08;100.00
24306;BME280;12423;48.768;8.850;2023-01-31T10:37:54;97915.69;;;4.06;100.00
24306;BME280;12423;48.768;8.850;2023-01-31T10:40:02;97918.53;;;4.01;100.00
24306;BME280;12423;48.768;8.850;2023-01-31T10:44:40;97914.94;;;4.02;100.00
24306;BME280;12423;48.768;8.850;2023-01-31T10:46:42;97911.72;;;3.96;100.00
24306;BME280;12423;48.768;8.850;2023-01-31T10:48:44;97908.41;;;4.11;100.00
24306;BME280;12423;48.768;8.850;2023-01-31T10:53:24;97911.53;;;4.19;100.00
24306;BME280;12423;48.768;8.850;2023-01-31T10:55:42;97908.25;;;4.33;100.00
24306;BME280;12423;48.768;8.850;2023-01-31T10:57:48;97890.63;;;4.51;100.00
24306;BME280;12423;48.768;8.850;2023-01-31T10:59:49;97890.22;;;4.60;100.00
24306;BME280;12423;48.768;8.850;2023-01-31T11:01:51;97900.09;;;4.74;100.00
24306;BME280;12423;48.768;8.850;2023-01-31T11:03:54;97903.31;;;4.81;100.00
24306;BME280;12423;48.768;8.850;2023-01-31T11:05:56;97910.00;;;4.88;100.00
24306;BME280;12423;48.768;8.850;2023-01-31T11:08:00;97911.47;;;4.76;100.00
24306;BME280;12423;48.768;8.850;2023-01-31T11:10:28;97893.91;;;4.56;100.00
24306;BME280;12423;48.768;8.850;2023-01-31T11:12:50;97904.72;;;4.52;100.00
24306;BME280;12423;48.768;8.850;2023-01-31T11:15:10;97898.78;;;4.66;100.00
24306;BME280;12423;48.768;8.850;2023-01-31T11:17:20;97897.34;;;4.58;100.00
24306;BME280;12423;48.768;8.850;2023-01-31T11:19:36;97887.28;;;4.84;100.00
24306;BME280;12423;48.768;8.850;2023-01-31T11:21:38;97880.31;;;5.18;100.00
24306;BME280;12423;48.768;8.850;2023-01-31T11:23:42;97857.22;;;4.68;100.00
24306;BME280;12423;48.768;8.850;2023-01-31T11:25:47;97844.59;;;4.55;100.00
24306;BME280;12423;48.768;8.850;2023-01-31T11:27:51;97857.69;;;4.76;100.00
24306;BME280;12423;48.768;8.850;2023-01-31T11:29:54;97847.66;;;4.83;100.00
24306;BME280;12423;48.768;8.850;2023-01-31T11:31:58;97844.97;;;4.65;100.00
24306;BME280;12423;48.768;8.850;2023-01-31T11:34:03;97838.38;;;4.74;100.00